Terminal Aerodrome Forecast
Issued by NWS Pendleton, OR

Home | Current Version | Previous Version | Text Only | Print | Product List | Glossary On
Versions: 1 2 3 4 5 6 7 8 9 10 11 12 13 14 15 16 17 18 19 20 21 22 23 24 25
465
FTUS46 KPDT 211516 AAC
TAFPDT
TAF AMD
KPDT 211516Z 2115/2212 33006KT P6SM -SHRA FEW001 SCT025 BKN050
      TEMPO 2115/2116 4SM -SHRA BR BKN003
     FM211600 22006KT 6SM -SHRA BR FEW003 OVC020
     FM211900 27015G25KT P6SM -SHRA BKN020 OVC030
     FM220200 26015G25KT P6SM VCSH SCT025 OVC040
     FM220700 25010KT P6SM SCT040=

USA.gov is the U.S. government's official web portal to all federal, state and local government web resources and services.